EGVO

RAF Odiham Airport

Odiham, United Kingdom
METAR EGVO 172050Z AUTO 07004KT 9999 NCD 05/04 Q1026
Observed Flight Rules
Nov-17 @ 20:50 UTC (50 minutes ago) Visual Flight Rules
Wind Visibility Clouds
70° at 4 knots 10,000+ meters
  • Clear skies
Temperatures Readings
Current 5°C / 41°F
Dewpoint 4°C / 39°F
Humidity 93%
Altimeter 30.3" Hg
Pressure 1026 hPa
Elevation 123
METAR EGVO 172050Z AUTO 07004KT 9999 NCD 05/04 Q1026
Observed Flight Rules
Nov-17 @ 20:50 UTC
(50 minutes ago)
VFR
Wind Visibility
70° at 4 knots 10,000+ meters
Clouds
  • Clear skies
Temperature Dewpoint
5°C / 41°F 4°C / 39°F
Humidity Altimeter Pressure
93% 30.3" Hg 1026 hPa